Time;durP1;ratioP1;P1;durP2;ratioP2;P2;SDS_P1;SDS_P2;PMS_P1;PMS_P2;Temp;Humidity;BMP_temperature;BMP_pressure;BME280_temperature;BME280_humidity;BME280_pressure;Samples;Min_cycle;Max_cycle;Signal;HPM_P1;HPM_P2
2023/07/16 00:00:08;;;;;;;7.00;4.55;;;;;;;21.49;83.38;100508.22;5053006;28;20035;-73
2023/07/16 00:02:34;;;;;;;6.00;4.55;;;;;;;21.47;83.72;100518.41;5037092;28;20073;-72
2023/07/16 00:04:59;;;;;;;6.32;4.30;;;;;;;21.39;83.70;100504.63;5021137;28;20749;-72
2023/07/16 00:07:24;;;;;;;7.60;4.95;;;;;;;21.38;83.61;100503.00;5039399;28;20032;-73
2023/07/16 00:09:50;;;;;;;9.05;4.85;;;;;;;21.39;83.98;100507.28;5026876;28;20054;-73
2023/07/16 00:12:15;;;;;;;6.30;4.65;;;;;;;21.37;83.85;100505.97;5036576;28;20052;-71
2023/07/16 00:14:40;;;;;;;7.50;4.82;;;;;;;21.30;86.00;100503.66;5039645;28;20108;-71
2023/07/16 00:17:06;;;;;;;8.90;4.90;;;;;;;21.20;85.10;100499.28;5022206;28;20391;-72
2023/07/16 00:19:31;;;;;;;6.32;4.65;;;;;;;21.26;85.33;100508.00;5037402;28;20025;-73
2023/07/16 00:21:57;;;;;;;6.25;4.75;;;;;;;21.28;85.46;100511.19;5038805;28;21496;-70
2023/07/16 00:24:22;;;;;;;6.07;4.32;;;;;;;21.18;85.67;100500.66;5038094;28;20033;-73
2023/07/16 00:26:47;;;;;;;8.93;4.85;;;;;;;21.16;85.74;100502.84;5030337;28;20047;-70
2023/07/16 00:29:13;;;;;;;6.10;4.75;;;;;;;21.16;86.89;100505.50;5026192;28;20430;-71
2023/07/16 00:31:38;;;;;;;7.68;4.90;;;;;;;21.15;86.32;100499.38;5036277;28;20021;-71
2023/07/16 00:34:03;;;;;;;7.22;4.53;;;;;;;21.13;86.50;100500.75;5038320;28;20386;-72
2023/07/16 00:36:29;;;;;;;8.85;4.65;;;;;;;21.07;86.69;100488.53;5018464;28;20025;-71
2023/07/16 00:38:54;;;;;;;6.28;5.25;;;;;;;21.09;86.46;100505.09;5036684;28;20025;-72
2023/07/16 00:41:20;;;;;;;6.57;4.60;;;;;;;20.98;87.99;100478.50;5040808;28;20031;-72
2023/07/16 00:43:45;;;;;;;8.18;4.90;;;;;;;20.99;87.87;100485.41;5039254;28;20116;-69
2023/07/16 00:46:12;;;;;;;6.75;4.80;;;;;;;20.93;87.76;100489.28;5038544;28;20033;-69
2023/07/16 00:48:37;;;;;;;12.60;5.57;;;;;;;20.89;87.59;100474.88;5036622;28;20053;-72
2023/07/16 00:51:04;;;;;;;6.90;4.85;;;;;;;20.91;88.06;100488.78;5037625;28;20076;-72
2023/07/16 00:53:30;;;;;;;7.22;4.90;;;;;;;20.88;87.99;100489.38;5037930;28;20501;-69
2023/07/16 00:55:55;;;;;;;6.50;4.88;;;;;;;20.87;88.35;100486.97;5037398;28;20037;-72
2023/07/16 00:58:20;;;;;;;7.80;4.80;;;;;;;20.79;88.36;100472.38;5036948;28;20026;-72
2023/07/16 01:00:46;;;;;;;7.07;5.00;;;;;;;20.87;88.43;100492.31;5038715;28;20579;-69
2023/07/16 01:03:13;;;;;;;6.45;4.85;;;;;;;20.76;88.36;100478.31;5027484;28;20059;-72
2023/07/16 01:05:51;;;;;;;11.32;4.95;;;;;;;20.81;88.96;100492.41;5036199;28;20490;-72
2023/07/16 01:08:30;;;;;;;6.90;4.78;;;;;;;20.76;89.08;100489.81;5034059;28;20471;-72
2023/07/16 01:10:57;;;;;;;6.20;4.72;;;;;;;20.74;89.39;100491.97;5035087;28;20039;-72
2023/07/16 01:13:23;;;;;;;6.53;4.65;;;;;;;20.73;89.20;100493.03;5038554;28;20028;-71
2023/07/16 01:15:49;;;;;;;6.38;4.90;;;;;;;20.69;89.19;100486.72;5038407;28;20499;-72
2023/07/16 01:18:14;;;;;;;6.82;4.30;;;;;;;20.62;89.39;100482.81;5037180;28;20115;-71
2023/07/16 01:20:40;;;;;;;6.28;4.55;;;;;;;20.64;89.33;100478.75;5036281;28;20064;-72
2023/07/16 01:23:39;;;;;;;7.25;4.80;;;;;;;20.62;89.19;100482.81;5033501;28;20491;-72
2023/07/16 01:26:19;;;;;;;8.40;5.20;;;;;;;20.66;88.88;100483.81;5037474;28;20090;-71
2023/07/16 01:29:22;;;;;;;5.72;4.60;;;;;;;20.64;89.11;100492.13;5039803;28;20026;-72
2023/07/16 01:31:49;;;;;;;7.68;4.80;;;;;;;20.57;89.36;100479.13;5036772;28;20041;-72
2023/07/16 01:34:15;;;;;;;5.75;4.63;;;;;;;20.58;89.31;100490.59;5036410;28;20032;-71
2023/07/16 01:36:42;;;;;;;7.32;5.15;;;;;;;20.56;89.87;100484.75;5025183;28;20487;-72
2023/07/16 01:39:07;;;;;;;7.68;4.97;;;;;;;20.54;90.03;100490.38;5019832;28;20028;-72
2023/07/16 01:41:32;;;;;;;7.78;5.10;;;;;;;20.49;89.71;100474.38;5036715;28;20036;-73
2023/07/16 01:43:58;;;;;;;7.57;5.15;;;;;;;20.48;90.06;100483.50;5037700;28;20025;-73
2023/07/16 01:46:25;;;;;;;7.13;5.03;;;;;;;20.43;90.11;100475.53;5024621;28;20049;-72
2023/07/16 01:48:50;;;;;;;8.07;4.80;;;;;;;20.40;91.20;100481.47;5038829;28;20032;-73
2023/07/16 01:51:16;;;;;;;8.32;4.95;;;;;;;20.44;90.80;100484.34;5034472;28;20112;-70
2023/07/16 01:53:41;;;;;;;7.90;4.75;;;;;;;20.38;91.46;100480.97;5039579;28;20045;-72
2023/07/16 01:56:06;;;;;;;7.78;4.75;;;;;;;20.41;91.15;100488.41;5035246;28;20029;-72
2023/07/16 01:58:32;;;;;;;7.40;4.68;;;;;;;20.36;91.23;100477.78;5036954;28;20032;-72
2023/07/16 02:00:58;;;;;;;9.15;4.97;;;;;;;20.31;92.00;100483.19;5035219;28;20099;-72
2023/07/16 02:03:23;;;;;;;7.80;4.65;;;;;;;20.23;92.17;100467.78;5007510;28;20079;-72
2023/07/16 02:05:49;;;;;;;7.22;5.10;;;;;;;20.29;91.81;100486.16;5036391;28;20106;-72
2023/07/16 02:08:16;;;;;;;7.18;4.93;;;;;;;20.29;91.94;100488.03;5035342;28;20514;-71
2023/07/16 02:10:41;;;;;;;6.68;4.80;;;;;;;20.24;92.36;100480.88;5036583;28;20079;-71
2023/07/16 02:13:06;;;;;;;5.03;4.35;;;;;;;20.23;91.95;100478.47;5018284;28;20056;-72
2023/07/16 02:15:32;;;;;;;7.57;4.68;;;;;;;20.21;91.98;100478.78;5023436;28;20365;-72
2023/07/16 02:17:57;;;;;;;6.55;4.70;;;;;;;20.19;92.33;100481.72;5035395;28;20455;-72
2023/07/16 02:20:23;;;;;;;7.22;4.65;;;;;;;20.17;92.35;100478.53;5033712;28;20079;-72
2023/07/16 02:22:48;;;;;;;7.35;5.00;;;;;;;20.14;92.54;100481.81;5038091;28;20036;-74
2023/07/16 02:25:13;;;;;;;8.20;4.60;;;;;;;20.14;92.74;100486.34;5039534;28;20025;-75
2023/07/16 02:27:39;;;;;;;10.35;5.25;;;;;;;20.12;92.79;100488.53;5023298;28;20087;-74
2023/07/16 02:30:06;;;;;;;5.95;4.43;;;;;;;20.10;92.48;100478.09;5035772;28;20049;-74
2023/07/16 02:32:32;;;;;;;6.72;5.00;;;;;;;20.05;92.96;100474.69;5033925;28;20021;-74
2023/07/16 02:34:57;;;;;;;7.55;4.57;;;;;;;20.09;93.09;100483.75;5035822;28;20036;-74
2023/07/16 02:37:23;;;;;;;12.15;4.90;;;;;;;20.06;93.43;100490.44;5026670;28;20035;-73
2023/07/16 02:39:48;;;;;;;10.10;4.75;;;;;;;20.08;93.05;100479.47;5037563;28;20107;-74
2023/07/16 02:42:13;;;;;;;8.48;4.95;;;;;;;20.09;92.73;100481.88;5038544;28;20037;-74
2023/07/16 02:44:44;;;;;;;10.30;5.22;;;;;;;20.02;93.37;100478.75;5020253;28;20099;-74
2023/07/16 02:47:10;;;;;;;6.70;4.75;;;;;;;20.04;93.42;100489.13;5023558;28;20052;-74
2023/07/16 02:49:36;;;;;;;12.05;5.15;;;;;;;20.02;93.16;100485.97;5035116;28;20040;-74
2023/07/16 02:52:01;;;;;;;7.53;5.20;;;;;;;19.97;93.61;100481.47;5035500;28;20438;-75
2023/07/16 02:54:26;;;;;;;9.23;5.05;;;;;;;20.01;93.25;100485.16;5035451;28;20021;-72
2023/07/16 02:56:52;;;;;;;7.53;5.38;;;;;;;20.03;93.15;100496.38;5020059;28;20061;-72
2023/07/16 02:59:17;;;;;;;8.57;5.70;;;;;;;20.02;93.06;100494.78;5037779;28;20482;-75
2023/07/16 03:01:42;;;;;;;6.80;4.90;;;;;;;20.04;93.14;100494.47;5033568;28;20057;-74
2023/07/16 03:04:08;;;;;;;7.03;5.03;;;;;;;19.97;93.83;100492.19;5032469;28;20474;-74
2023/07/16 03:06:33;;;;;;;6.55;5.05;;;;;;;19.80;94.74;100473.09;5018379;28;20035;-72
2023/07/16 03:08:59;;;;;;;7.22;4.93;;;;;;;19.76;95.42;100488.94;5014731;28;20484;-73
2023/07/16 03:11:24;;;;;;;6.80;5.15;;;;;;;19.71;95.97;100479.09;5022711;28;20036;-71
2023/07/16 03:13:49;;;;;;;7.88;5.28;;;;;;;19.70;95.89;100480.16;5035893;28;20028;-72
2023/07/16 03:16:15;;;;;;;6.80;5.20;;;;;;;19.65;95.90;100466.81;5020735;28;20029;-72
2023/07/16 03:18:40;;;;;;;6.70;5.32;;;;;;;19.69;95.92;100473.22;5034332;28;20475;-71
2023/07/16 03:21:06;;;;;;;6.35;5.00;;;;;;;19.73;95.92;100479.59;5030980;28;20021;-70
2023/07/16 03:23:31;;;;;;;8.13;5.80;;;;;;;19.67;96.20;100470.00;5042307;28;20116;-76
2023/07/16 03:25:56;;;;;;;12.57;5.85;;;;;;;19.69;96.12;100481.25;5020973;28;20071;-69
2023/07/16 03:28:22;;;;;;;7.32;5.15;;;;;;;19.67;96.50;100483.38;5035229;28;20025;-72
2023/07/16 03:30:48;;;;;;;8.45;5.10;;;;;;;19.70;96.24;100482.81;5017927;28;20084;-70
2023/07/16 03:33:15;;;;;;;8.55;5.53;;;;;;;19.61;96.53;100475.69;5036950;28;20758;-72
2023/07/16 03:35:48;;;;;;;12.75;5.30;;;;;;;19.69;96.48;100489.25;5036045;28;20542;-70
2023/07/16 03:38:14;;;;;;;7.65;5.60;;;;;;;19.70;96.38;100484.72;5035170;28;20037;-68
2023/07/16 03:40:43;;;;;;;7.97;5.63;;;;;;;19.62;96.50;100478.09;5024043;28;20021;-72
2023/07/16 03:43:08;;;;;;;9.25;5.53;;;;;;;19.63;96.30;100470.84;5037661;28;20029;-72
2023/07/16 03:45:33;;;;;;;12.43;5.25;;;;;;;19.70;96.03;100480.16;5041554;28;20099;-71
2023/07/16 03:47:59;;;;;;;7.20;5.07;;;;;;;19.72;96.04;100487.91;5036687;28;20032;-71
2023/07/16 03:50:24;;;;;;;9.80;5.40;;;;;;;19.71;96.38;100494.34;5021452;28;20099;-71
2023/07/16 03:52:50;;;;;;;10.60;5.10;;;;;;;19.72;95.90;100478.00;5039826;28;20025;-69
2023/07/16 03:55:15;;;;;;;9.60;5.47;;;;;;;19.82;95.51;100486.97;5023492;28;20036;-69
2023/07/16 03:57:42;;;;;;;10.57;5.53;;;;;;;19.82;95.50;100479.75;5024896;28;20082;-73
2023/07/16 04:00:10;;;;;;;7.85;5.50;;;;;;;19.94;95.03;100482.84;5041589;28;20033;-72
2023/07/16 04:02:36;;;;;;;6.95;5.63;;;;;;;19.91;94.62;100483.41;5062423;28;20041;-73
2023/07/16 04:05:02;;;;;;;9.13;5.15;;;;;;;20.00;94.45;100496.94;5059500;28;20549;-72
2023/07/16 04:07:28;;;;;;;7.45;5.40;;;;;;;20.03;94.21;100496.38;5059740;28;20029;-69
2023/07/16 04:09:53;;;;;;;9.18;5.78;;;;;;;20.13;94.17;100496.22;5061695;28;20036;-68
2023/07/16 04:12:19;;;;;;;10.05;5.65;;;;;;;20.15;93.73;100488.72;5058217;28;20031;-72
2023/07/16 04:14:44;;;;;;;9.85;5.47;;;;;;;20.24;93.37;100501.47;5058656;28;20083;-71
2023/07/16 04:17:10;;;;;;;7.15;5.45;;;;;;;20.29;93.13;100493.38;5057197;28;20145;-73
2023/07/16 04:19:35;;;;;;;7.97;5.38;;;;;;;20.38;92.80;100508.50;5058483;28;20028;-74
2023/07/16 04:22:01;;;;;;;5.75;4.72;;;;;;;20.38;92.96;100491.66;5064569;28;20040;-72
2023/07/16 04:24:26;;;;;;;7.75;5.40;;;;;;;20.49;92.45;100493.09;5058097;28;20024;-72
2023/07/16 04:26:55;;;;;;;9.63;5.97;;;;;;;20.53;91.97;100491.44;5057740;28;20090;-72
2023/07/16 04:29:21;;;;;;;9.48;5.90;;;;;;;20.66;91.47;100494.50;5057900;28;20219;-72
2023/07/16 04:31:47;;;;;;;7.38;5.63;;;;;;;20.66;91.08;100492.63;5058713;28;20597;-72
2023/07/16 04:34:12;;;;;;;8.43;5.43;;;;;;;20.71;90.67;100491.75;5060106;28;20036;-71
2023/07/16 04:36:38;;;;;;;7.78;5.30;;;;;;;20.79;90.79;100493.78;5056384;28;20040;-72
2023/07/16 04:39:04;;;;;;;11.10;5.15;;;;;;;20.84;90.66;100493.69;5058459;28;20394;-76
2023/07/16 04:41:30;;;;;;;18.75;7.07;;;;;;;20.95;90.34;100497.81;5058971;28;20458;-76
2023/07/16 04:43:55;;;;;;;11.55;5.72;;;;;;;20.99;90.22;100496.13;5054389;28;20035;-76
2023/07/16 04:46:21;;;;;;;7.85;5.30;;;;;;;21.14;88.61;100502.31;5057610;28;20051;-75
2023/07/16 04:48:46;;;;;;;7.82;5.75;;;;;;;21.17;88.27;100512.47;5054703;28;20396;-74
2023/07/16 04:51:11;;;;;;;9.55;5.57;;;;;;;20.79;88.00;100446.41;5055199;28;20105;-76
2023/07/16 04:53:37;;;;;;;7.22;5.55;;;;;;;21.33;88.41;100504.97;5060641;28;20142;-75
2023/07/16 04:56:02;;;;;;;8.57;5.28;;;;;;;21.36;87.64;100499.81;5060198;28;20044;-75
2023/07/16 04:58:28;;;;;;;7.57;5.50;;;;;;;21.47;87.99;100507.69;5054876;28;20037;-75
2023/07/16 05:00:53;;;;;;;10.50;5.50;;;;;;;21.53;86.99;100501.19;5055489;28;20049;-76
2023/07/16 05:03:19;;;;;;;7.78;5.80;;;;;;;21.60;86.32;100493.53;5041154;28;20036;-75
2023/07/16 05:05:44;;;;;;;7.55;5.82;;;;;;;21.51;86.01;100487.28;5036973;28;20029;-75
2023/07/16 05:08:09;;;;;;;6.60;5.30;;;;;;;21.73;86.04;100508.81;5009995;28;20028;-75
2023/07/16 05:10:35;;;;;;;9.45;5.78;;;;;;;21.76;85.65;100502.06;5039786;28;20383;-76
2023/07/16 05:13:00;;;;;;;9.55;5.63;;;;;;;21.65;84.64;100477.38;5027335;28;20502;-74
2023/07/16 05:15:26;;;;;;;8.98;5.82;;;;;;;22.01;85.05;100514.22;5016607;28;20037;-74
2023/07/16 05:17:51;;;;;;;6.28;5.50;;;;;;;22.04;84.48;100517.06;5005393;28;20563;-74
2023/07/16 05:20:17;;;;;;;7.00;5.57;;;;;;;22.13;84.72;100511.03;5033681;28;20017;-74
2023/07/16 05:22:42;;;;;;;7.82;5.60;;;;;;;21.96;84.46;100474.09;5027580;28;20040;-74
2023/07/16 05:25:08;;;;;;;8.48;5.57;;;;;;;22.33;84.72;100507.16;5037958;28;20526;-75
2023/07/16 05:27:35;;;;;;;6.95;5.78;;;;;;;22.45;84.58;100505.53;5041165;28;20049;-74
2023/07/16 05:30:00;;;;;;;11.02;5.68;;;;;;;22.59;83.99;100516.22;5039734;28;20022;-72
2023/07/16 05:32:26;;;;;;;8.82;5.85;;;;;;;22.61;83.22;100511.34;5032444;28;20536;-72
2023/07/16 05:34:51;;;;;;;6.35;5.30;;;;;;;22.68;83.48;100510.94;5036650;28;20030;-72
2023/07/16 05:37:17;;;;;;;7.25;5.57;;;;;;;22.82;82.62;100522.44;5037603;28;20432;-72
2023/07/16 05:39:42;;;;;;;7.00;5.80;;;;;;;22.91;82.68;100525.97;5021619;28;20132;-73
2023/07/16 05:42:07;;;;;;;7.90;5.65;;;;;;;23.01;81.98;100521.47;5037315;28;20387;-73
2023/07/16 05:44:33;;;;;;;7.57;6.00;;;;;;;23.13;81.17;100530.59;5037110;28;20039;-73
2023/07/16 05:46:58;;;;;;;8.43;5.80;;;;;;;23.21;81.04;100529.03;5021061;28;20082;-73
2023/07/16 05:49:26;;;;;;;9.82;6.40;;;;;;;23.33;81.23;100536.53;5039186;28;20487;-73
2023/07/16 05:51:52;;;;;;;10.88;6.35;;;;;;;23.39;80.60;100538.00;5036540;28;20032;-75
2023/07/16 05:54:17;;;;;;;8.60;6.43;;;;;;;23.41;80.50;100521.56;5020691;28;20029;-73
2023/07/16 05:56:43;;;;;;;9.45;6.28;;;;;;;23.55;80.24;100544.56;5035646;28;20029;-72
2023/07/16 05:59:08;;;;;;;10.80;6.45;;;;;;;23.66;80.06;100533.56;5024977;28;20115;-72
2023/07/16 06:01:33;;;;;;;9.07;6.15;;;;;;;23.84;79.66;100545.22;5038166;28;20138;-72
2023/07/16 06:03:59;;;;;;;14.93;8.07;;;;;;;23.89;79.37;100551.22;5040404;28;20055;-73
2023/07/16 06:06:24;;;;;;;14.57;10.15;;;;;;;24.04;79.63;100550.03;5020167;28;20466;-73
2023/07/16 06:08:49;;;;;;;9.45;6.80;;;;;;;24.11;77.30;100550.38;5036543;28;20036;-72
2023/07/16 06:11:15;;;;;;;9.98;5.90;;;;;;;24.20;77.52;100551.16;5037624;28;20021;-70
2023/07/16 06:13:40;;;;;;;7.35;6.20;;;;;;;24.30;76.67;100549.28;5004509;28;20025;-70
2023/07/16 06:16:06;;;;;;;9.73;5.63;;;;;;;24.37;76.97;100549.63;5036964;28;20024;-70
2023/07/16 06:18:31;;;;;;;7.75;5.80;;;;;;;24.41;76.91;100543.31;5035662;28;20037;-72
2023/07/16 06:20:57;;;;;;;8.95;6.03;;;;;;;24.55;76.08;100558.56;5036727;28;20020;-73
2023/07/16 06:23:22;;;;;;;7.45;5.75;;;;;;;24.65;76.18;100560.16;5035348;28;20022;-71
2023/07/16 06:25:48;;;;;;;11.10;5.78;;;;;;;24.77;75.97;100552.25;5039471;28;20075;-72
2023/07/16 06:28:15;;;;;;;8.77;5.82;;;;;;;24.74;74.91;100545.59;5021656;28;20028;-72
2023/07/16 06:30:40;;;;;;;7.97;6.10;;;;;;;24.86;74.46;100541.47;5038269;28;20032;-72
2023/07/16 06:33:06;;;;;;;8.55;5.53;;;;;;;24.93;73.96;100550.66;5035481;28;20030;-71
2023/07/16 06:35:32;;;;;;;9.02;5.78;;;;;;;25.03;73.14;100552.25;5026028;28;20566;-72
2023/07/16 06:37:57;;;;;;;7.22;5.10;;;;;;;25.10;73.76;100540.97;5035213;28;20064;-73
2023/07/16 06:40:24;;;;;;;6.72;5.68;;;;;;;25.28;73.87;100537.16;5036823;28;20052;-72
2023/07/16 06:42:49;;;;;;;7.82;4.68;;;;;;;25.45;72.51;100544.41;5036024;28;20051;-73
2023/07/16 06:45:16;;;;;;;6.10;4.82;;;;;;;25.50;71.96;100535.34;5033424;28;20162;-74
2023/07/16 06:47:42;;;;;;;9.25;5.47;;;;;;;25.58;71.83;100546.13;5018855;28;20029;-73
2023/07/16 06:50:07;;;;;;;6.78;5.20;;;;;;;25.72;71.59;100545.13;5036866;28;20083;-73
2023/07/16 06:52:33;;;;;;;7.63;5.30;;;;;;;25.77;70.51;100545.75;5021340;28;20056;-71
2023/07/16 06:54:58;;;;;;;6.32;5.28;;;;;;;25.93;70.50;100550.63;5039421;28;20026;-73
2023/07/16 06:57:23;;;;;;;7.25;5.15;;;;;;;25.95;69.54;100545.69;5036961;28;20033;-70
2023/07/16 06:59:49;;;;;;;9.18;4.95;;;;;;;26.00;70.46;100551.72;5038134;28;20033;-73
2023/07/16 07:02:16;;;;;;;6.85;5.63;;;;;;;26.01;71.17;100542.50;5054069;28;20090;-71
2023/07/16 07:04:42;;;;;;;9.13;5.32;;;;;;;26.27;68.89;100549.66;5062620;28;20025;-72
2023/07/16 07:07:07;;;;;;;9.48;5.30;;;;;;;26.13;69.11;100522.13;5070480;28;20035;-73
2023/07/16 07:09:32;;;;;;;6.95;5.50;;;;;;;26.34;69.10;100539.13;5065701;28;20097;-72
2023/07/16 07:11:58;;;;;;;8.60;5.20;;;;;;;26.52;69.34;100537.09;5060853;28;20141;-73
2023/07/16 07:14:23;;;;;;;6.80;5.15;;;;;;;26.70;67.08;100543.19;5058440;28;20115;-74
2023/07/16 07:16:49;;;;;;;10.57;5.60;;;;;;;26.60;68.13;100520.06;5066057;28;20805;-72
2023/07/16 07:19:14;;;;;;;8.35;5.15;;;;;;;26.86;67.16;100540.66;5055404;28;20083;-74
2023/07/16 07:21:39;;;;;;;9.82;5.30;;;;;;;26.93;67.09;100539.00;5056580;28;20021;-73
2023/07/16 07:24:05;;;;;;;6.50;5.32;;;;;;;26.99;66.15;100531.50;5057589;28;20032;-73
2023/07/16 07:26:30;;;;;;;7.45;4.80;;;;;;;27.10;66.59;100542.66;5059124;28;20028;-74
2023/07/16 07:28:55;;;;;;;8.30;5.53;;;;;;;27.18;66.40;100528.28;5060127;28;21563;-73
2023/07/16 07:31:21;;;;;;;8.20;5.20;;;;;;;27.30;65.92;100533.75;5062959;28;20040;-73
2023/07/16 07:33:46;;;;;;;7.95;5.30;;;;;;;27.43;65.48;100531.84;5060679;28;20033;-74
2023/07/16 07:36:12;;;;;;;5.85;4.90;;;;;;;27.50;65.35;100528.59;5063859;28;20433;-74
2023/07/16 07:38:37;;;;;;;5.47;4.88;;;;;;;27.60;65.47;100547.09;5060004;28;20028;-74
2023/07/16 07:41:04;;;;;;;8.80;5.32;;;;;;;27.79;65.96;100533.00;5065022;28;20072;-73
2023/07/16 07:43:30;;;;;;;8.25;5.03;;;;;;;27.85;65.29;100525.50;5067257;28;20092;-74
2023/07/16 07:45:58;;;;;;;6.22;4.72;;;;;;;27.99;64.43;100534.03;5068166;28;20097;-78
2023/07/16 07:48:24;;;;;;;7.35;4.72;;;;;;;28.05;63.45;100532.69;5069462;28;20035;-74
2023/07/16 07:50:50;;;;;;;203.40;182.18;;;;;;;28.15;63.21;100534.16;5064693;28;20572;-73
2023/07/16 07:53:17;;;;;;;46.83;36.83;;;;;;;28.19;63.18;100529.66;5059184;28;20477;-72
2023/07/16 07:55:43;;;;;;;137.07;103.70;;;;;;;28.51;63.12;100543.38;5055634;28;20032;-73
2023/07/16 07:58:09;;;;;;;26.40;22.13;;;;;;;28.61;63.18;100526.63;5055370;28;20044;-71
2023/07/16 08:00:37;;;;;;;9.45;5.50;;;;;;;28.66;59.77;100526.41;5054824;28;20119;-75
2023/07/16 08:03:03;;;;;;;17.88;15.32;;;;;;;28.73;61.69;100531.22;5039903;28;20100;-74
2023/07/16 08:05:29;;;;;;;23.10;20.65;;;;;;;28.80;60.98;100543.06;5040070;28;20140;-72
2023/07/16 08:07:55;;;;;;;10.25;8.20;;;;;;;28.86;59.70;100548.25;5023943;28;20033;-73
2023/07/16 08:10:22;;;;;;;32.67;29.48;;;;;;;28.88;59.33;100544.03;5037673;28;20025;-73
2023/07/16 08:12:47;;;;;;;8.77;6.32;;;;;;;28.91;59.32;100546.06;5024978;28;20033;-73
2023/07/16 08:15:16;;;;;;;55.20;50.00;;;;;;;29.18;56.02;100543.69;5038107;28;20035;-73
2023/07/16 08:17:42;;;;;;;8.90;6.93;;;;;;;29.22;56.24;100542.66;5026877;28;20083;-74
2023/07/16 08:20:08;;;;;;;47.35;43.05;;;;;;;29.24;57.01;100531.47;5018794;28;20661;-73
2023/07/16 08:22:33;;;;;;;9.70;6.57;;;;;;;29.40;55.32;100535.00;5032486;28;20116;-74
2023/07/16 08:24:59;;;;;;;8.25;5.00;;;;;;;29.30;53.98;100513.78;5036873;28;20929;-74
2023/07/16 08:27:24;;;;;;;8.10;4.68;;;;;;;29.45;53.76;100534.72;5027828;28;20703;-72
2023/07/16 08:29:49;;;;;;;6.10;4.00;;;;;;;29.40;54.01;100520.63;5021422;28;20029;-74
2023/07/16 08:32:15;;;;;;;5.50;4.65;;;;;;;29.58;53.68;100532.69;5040887;28;20340;-73
2023/07/16 08:34:40;;;;;;;38.50;35.08;;;;;;;29.71;53.46;100521.78;5035309;28;20026;-73
2023/07/16 08:37:06;;;;;;;125.68;114.10;;;;;;;29.82;53.35;100531.75;5026323;28;20113;-73
2023/07/16 08:39:32;;;;;;;13.93;8.38;;;;;;;29.89;52.73;100540.06;5023460;28;20124;-73
2023/07/16 08:41:58;;;;;;;18.98;17.02;;;;;;;29.94;52.90;100527.38;5038827;28;20029;-72
2023/07/16 08:44:23;;;;;;;8.20;5.40;;;;;;;30.11;53.72;100535.13;5025987;28;20090;-75
2023/07/16 08:46:50;;;;;;;7.90;5.97;;;;;;;30.13;52.96;100532.84;5044423;28;20039;-75
2023/07/16 08:49:18;;;;;;;7.25;4.45;;;;;;;30.20;52.56;100533.00;5038257;28;20040;-75
2023/07/16 08:51:45;;;;;;;5.82;4.50;;;;;;;30.31;53.23;100528.63;5022546;28;20502;-73
2023/07/16 08:54:11;;;;;;;6.10;4.38;;;;;;;30.41;53.49;100527.28;5022188;28;20040;-76
2023/07/16 08:56:37;;;;;;;7.97;4.75;;;;;;;30.42;51.85;100526.13;5041323;28;20434;-71
2023/07/16 08:59:03;;;;;;;10.60;7.90;;;;;;;30.47;52.26;100530.47;5018488;28;20035;-70
2023/07/16 09:01:28;;;;;;;12.13;8.55;;;;;;;30.53;52.04;100521.69;5040237;28;20060;-74
2023/07/16 09:03:54;;;;;;;19.00;14.65;;;;;;;30.65;52.52;100523.47;5037503;28;20029;-70
2023/07/16 09:06:19;;;;;;;11.00;7.38;;;;;;;30.69;50.83;100518.09;5038079;28;20028;-72
2023/07/16 09:08:45;;;;;;;9.43;7.05;;;;;;;30.74;51.78;100524.06;5023271;28;20017;-71
2023/07/16 09:11:13;;;;;;;8.32;5.00;;;;;;;30.73;50.26;100521.69;5038363;28;20390;-69
2023/07/16 09:13:43;;;;;;;;;;;;;;;30.70;50.60;100520.47;5039671;28;20033;-72
2023/07/16 09:16:09;;;;;;;12.70;8.50;;;;;;;30.77;51.80;100516.31;5039033;28;19917;-72
2023/07/16 09:18:34;;;;;;;6.40;4.60;;;;;;;30.85;52.92;100513.41;5038971;28;20029;-72
2023/07/16 09:21:02;;;;;;;8.43;4.60;;;;;;;31.00;50.94;100519.09;5036615;28;20036;-72
2023/07/16 09:23:30;;;;;;;7.78;4.80;;;;;;;31.00;50.73;100510.94;5040450;28;20029;-72
2023/07/16 09:25:56;;;;;;;5.18;4.32;;;;;;;31.05;49.93;100519.59;5036838;28;20037;-79
2023/07/16 09:28:22;;;;;;;5.03;4.28;;;;;;;31.05;49.55;100516.09;5027655;28;20033;-75
2023/07/16 09:30:48;;;;;;;5.82;4.32;;;;;;;31.05;50.25;100514.13;5037160;28;20111;-75
2023/07/16 09:33:22;;;;;;;8.00;4.40;;;;;;;31.19;47.04;100510.13;5035257;28;20025;-73
2023/07/16 09:35:51;;;;;;;8.55;4.30;;;;;;;31.30;46.48;100511.09;5040437;28;20124;-73
2023/07/16 09:38:17;;;;;;;6.13;4.38;;;;;;;31.35;45.96;100510.78;5035175;28;20120;-77
2023/07/16 09:40:44;;;;;;;7.07;4.20;;;;;;;31.43;45.86;100503.53;5036120;28;20112;-77
2023/07/16 09:43:10;;;;;;;9.75;4.70;;;;;;;31.44;45.97;100489.59;5036683;28;20035;-78
2023/07/16 09:45:36;;;;;;;7.47;4.28;;;;;;;31.60;45.17;100510.44;5039378;28;20038;-77
2023/07/16 09:48:02;;;;;;;5.82;4.32;;;;;;;31.68;44.78;100501.22;5042030;28;20035;-76
2023/07/16 09:50:30;;;;;;;5.47;4.80;;;;;;;31.73;44.48;100506.38;5039465;28;20029;-74
2023/07/16 09:52:57;;;;;;;6.20;4.18;;;;;;;31.79;44.25;100510.31;5040231;28;20112;-76
2023/07/16 09:55:23;;;;;;;6.68;4.53;;;;;;;31.81;43.89;100493.63;5022490;28;20029;-77
2023/07/16 09:57:50;;;;;;;12.68;4.93;;;;;;;31.90;42.75;100505.06;5039575;28;20032;-77
2023/07/16 10:00:17;;;;;;;15.02;5.65;;;;;;;31.81;42.80;100494.41;5043478;28;20024;-73
2023/07/16 10:02:44;;;;;;;6.85;5.05;;;;;;;31.83;43.72;100486.66;5039701;28;20426;-75
2023/07/16 10:05:18;;;;;;;6.82;4.50;;;;;;;31.90;44.10;100489.50;5020480;28;20033;-74
2023/07/16 10:07:50;;;;;;;7.68;4.60;;;;;;;32.06;43.76;100496.72;5040074;28;20059;-73
2023/07/16 10:10:17;;;;;;;6.75;4.53;;;;;;;32.11;43.46;100491.75;5025219;28;20035;-78
2023/07/16 10:12:43;;;;;;;7.80;4.82;;;;;;;32.24;43.78;100497.75;5038848;28;20037;-78
2023/07/16 10:15:11;;;;;;;7.38;4.60;;;;;;;32.28;43.53;100489.63;5038554;28;20029;-72
2023/07/16 10:17:37;;;;;;;6.35;4.82;;;;;;;32.29;43.10;100486.53;5041220;28;20032;-77
2023/07/16 10:20:07;;;;;;;8.25;5.07;;;;;;;32.40;42.85;100495.63;5034538;28;20948;-76
2023/07/16 10:22:32;;;;;;;8.10;4.68;;;;;;;32.46;42.25;100487.09;5037527;28;20043;-77
2023/07/16 10:24:58;;;;;;;7.87;4.97;;;;;;;32.48;42.48;100490.25;5018005;28;20021;-73
2023/07/16 10:27:31;;;;;;;10.23;4.95;;;;;;;32.58;42.20;100495.06;5039433;28;20356;-73
2023/07/16 10:29:57;;;;;;;7.35;4.80;;;;;;;32.54;42.61;100475.16;5038629;28;20467;-76
2023/07/16 10:32:27;;;;;;;5.35;4.70;;;;;;;32.68;41.85;100488.94;5037138;28;20020;-75
2023/07/16 10:34:52;;;;;;;7.18;4.75;;;;;;;32.70;41.49;100486.63;5022467;28;20033;-76
2023/07/16 10:37:18;;;;;;;7.35;4.53;;;;;;;32.65;41.92;100467.88;5039881;28;20025;-77
2023/07/16 10:39:51;;;;;;;7.53;4.63;;;;;;;32.87;42.01;100484.44;5037590;28;20033;-74
2023/07/16 10:42:18;;;;;;;7.07;4.82;;;;;;;32.96;41.43;100483.00;5042611;28;20036;-75
2023/07/16 10:44:44;;;;;;;9.77;4.55;;;;;;;33.04;41.58;100484.66;5037609;28;20028;-71
2023/07/16 10:47:20;;;;;;;7.88;5.28;;;;;;;33.03;41.27;100466.72;5028290;28;20411;-76
2023/07/16 10:49:45;;;;;;;7.30;4.60;;;;;;;33.16;41.12;100478.16;5015339;28;20823;-70
2023/07/16 10:52:10;;;;;;;5.28;4.78;;;;;;;33.17;41.60;100474.25;5042878;28;20021;-70
2023/07/16 10:54:36;;;;;;;5.72;4.78;;;;;;;33.11;40.70;100462.09;5023577;28;20028;-78
2023/07/16 10:57:04;;;;;;;9.23;4.57;;;;;;;33.20;40.76;100462.56;5040006;28;20028;-77
2023/07/16 10:59:29;;;;;;;6.03;4.50;;;;;;;33.20;40.88;100467.25;5039994;28;20053;-76
2023/07/16 11:01:54;;;;;;;7.15;5.32;;;;;;;33.30;41.12;100479.41;5043685;28;20339;-74
2023/07/16 11:04:20;;;;;;;6.95;4.93;;;;;;;33.33;41.46;100475.91;5055975;28;20147;-74
2023/07/16 11:06:45;;;;;;;8.00;5.22;;;;;;;33.23;40.47;100452.84;5061330;28;20387;-73
2023/07/16 11:09:11;;;;;;;9.63;4.70;;;;;;;33.34;40.66;100472.81;5057021;28;20402;-73
2023/07/16 11:11:37;;;;;;;6.13;5.10;;;;;;;33.37;39.93;100468.53;5060292;28;20021;-71
2023/07/16 11:14:05;;;;;;;6.72;5.38;;;;;;;33.36;40.23;100464.25;5058673;28;20066;-73
2023/07/16 11:16:37;;;;;;;8.68;4.50;;;;;;;33.43;40.51;100475.22;5057817;28;20072;-76
2023/07/16 11:19:05;;;;;;;8.32;4.72;;;;;;;33.51;41.32;100468.66;5057463;28;20036;-75